Time;durP1;ratioP1;P1;durP2;ratioP2;P2;SDS_P1;SDS_P2;PMS_P1;PMS_P2;Temp;Humidity;BMP_temperature;BMP_pressure;BME280_temperature;BME280_humidity;BME280_pressure;Samples;Min_cycle;Max_cycle;Signal;HPM_P1;HPM_P2
2023/12/23 00:01:21;;;;;;;4.70;4.60;;;;;;;;;;6045558;29;20060;-85
2023/12/23 00:04:23;;;;;;;4.63;4.53;;;;;;;;;;6039207;29;20037;-86
2023/12/23 00:07:25;;;;;;;5.40;5.20;;;;;;;;;;6042789;29;20069;-86
2023/12/23 00:10:26;;;;;;;4.63;4.53;;;;;;;;;;6038410;29;20042;-86
2023/12/23 00:13:28;;;;;;;4.95;4.85;;;;;;;;;;6037331;29;20038;-85
2023/12/23 00:16:31;;;;;;;5.00;4.80;;;;;;;;;;6043953;29;20425;-86
2023/12/23 00:19:32;;;;;;;5.18;5.00;;;;;;;;;;6037826;29;20050;-86
2023/12/23 00:22:34;;;;;;;5.28;4.93;;;;;;;;;;6038997;29;20053;-86
2023/12/23 00:25:39;;;;;;;5.68;5.47;;;;;;;;;;6040037;29;20076;-86
2023/12/23 00:28:41;;;;;;;5.85;5.32;;;;;;;;;;6053001;29;20068;-86
2023/12/23 00:31:43;;;;;;;11.65;5.15;;;;;;;;;;6048173;29;20045;-87
2023/12/23 00:34:45;;;;;;;5.85;5.65;;;;;;;;;;6063530;29;20136;-86
2023/12/23 00:37:47;;;;;;;5.38;4.90;;;;;;;;;;6045592;29;20049;-86
2023/12/23 00:40:50;;;;;;;4.78;4.68;;;;;;;;;;6041266;29;20120;-87
2023/12/23 00:43:52;;;;;;;4.65;4.55;;;;;;;;;;6042320;29;20054;-87
2023/12/23 00:46:54;;;;;;;4.60;4.50;;;;;;;;;;6044097;29;20065;-87
2023/12/23 00:49:56;;;;;;;4.70;4.60;;;;;;;;;;6035615;29;20338;-87
2023/12/23 00:53:00;;;;;;;5.15;4.95;;;;;;;;;;6046263;29;20439;-87
2023/12/23 00:56:02;;;;;;;5.07;4.88;;;;;;;;;;6045848;29;20141;-87
2023/12/23 00:59:04;;;;;;;4.70;4.60;;;;;;;;;;6055146;29;20068;-87
2023/12/23 01:02:05;;;;;;;11.65;5.55;;;;;;;;;;6035520;29;20499;-87
2023/12/23 01:05:08;;;;;;;4.82;4.72;;;;;;;;;;6039873;29;20049;-87
2023/12/23 01:08:11;;;;;;;5.80;5.50;;;;;;;;;;6040659;29;20117;-87
2023/12/23 01:11:12;;;;;;;6.18;5.88;;;;;;;;;;6046005;29;20056;-87
2023/12/23 01:14:14;;;;;;;4.65;4.55;;;;;;;;;;6047346;29;20037;-87
2023/12/23 01:17:16;;;;;;;5.10;4.90;;;;;;;;;;6040964;29;20063;-88
2023/12/23 01:20:18;;;;;;;4.70;4.55;;;;;;;;;;6046279;29;20044;-87
2023/12/23 01:23:20;;;;;;;6.25;5.32;;;;;;;;;;6043285;29;20198;-87
2023/12/23 01:26:22;;;;;;;4.60;4.50;;;;;;;;;;6041020;29;20056;-87
2023/12/23 01:29:23;;;;;;;4.68;4.57;;;;;;;;;;6037985;29;20049;-87
2023/12/23 01:32:25;;;;;;;5.03;4.82;;;;;;;;;;6039897;29;20519;-88
2023/12/23 01:35:27;;;;;;;5.65;5.35;;;;;;;;;;6050373;29;20049;-88
2023/12/23 01:38:28;;;;;;;4.88;4.78;;;;;;;;;;6043191;29;20045;-87
2023/12/23 01:41:31;;;;;;;5.22;5.03;;;;;;;;;;6044037;29;20061;-88
2023/12/23 01:44:33;;;;;;;4.68;4.57;;;;;;;;;;6039242;29;20412;-88
2023/12/23 01:47:36;;;;;;;5.05;4.90;;;;;;;;;;6038469;29;20053;-87
2023/12/23 01:50:38;;;;;;;5.40;5.20;;;;;;;;;;6040594;29;20069;-87
2023/12/23 01:53:42;;;;;;;4.55;4.45;;;;;;;;;;6054671;29;20516;-88
2023/12/23 01:56:44;;;;;;;5.28;5.07;;;;;;;;;;6039834;29;20492;-88
2023/12/23 01:59:46;;;;;;;5.28;5.07;;;;;;;;;;6046678;29;20443;-88
2023/12/23 02:02:48;;;;;;;5.20;5.00;;;;;;;;;;6047705;29;20512;-87
2023/12/23 02:05:50;;;;;;;4.97;4.88;;;;;;;;;;6059138;29;20749;-87
2023/12/23 02:08:52;;;;;;;4.63;4.53;;;;;;;;;;6040221;29;20044;-88
2023/12/23 02:12:06;;;;;;;7.63;7.22;;;;;;;;;;6037010;29;20064;-88
2023/12/23 02:15:09;;;;;;;5.63;5.43;;;;;;;;;;6040391;29;20128;-88
2023/12/23 02:18:11;;;;;;;5.07;4.93;;;;;;;;;;6036046;29;20193;-88
2023/12/23 02:21:13;;;;;;;4.53;4.43;;;;;;;;;;6037920;29;20049;-88
2023/12/23 02:24:15;;;;;;;4.63;4.50;;;;;;;;;;6042419;29;20136;-89
2023/12/23 02:27:20;;;;;;;12.18;5.70;;;;;;;;;;6061009;29;20100;-88
2023/12/23 02:30:24;;;;;;;5.03;4.82;;;;;;;;;;6049578;29;20065;-89
2023/12/23 02:33:26;;;;;;;5.53;5.32;;;;;;;;;;6056103;29;20052;-89
2023/12/23 02:36:29;;;;;;;5.28;5.07;;;;;;;;;;6052882;29;20052;-89
2023/12/23 02:39:31;;;;;;;8.43;5.45;;;;;;;;;;6050320;29;20050;-89
2023/12/23 02:42:33;;;;;;;5.20;5.00;;;;;;;;;;6036309;29;20411;-89
2023/12/23 02:45:35;;;;;;;5.20;4.75;;;;;;;;;;6044211;29;20041;-89
2023/12/23 02:48:37;;;;;;;6.53;6.20;;;;;;;;;;6047198;29;20189;-89
2023/12/23 02:51:38;;;;;;;5.82;5.63;;;;;;;;;;6046580;29;20037;-89
2023/12/23 02:54:40;;;;;;;4.97;4.78;;;;;;;;;;6049667;29;20092;-90
2023/12/23 02:57:42;;;;;;;5.75;5.55;;;;;;;;;;6049892;29;20060;-90
2023/12/23 03:00:44;;;;;;;13.45;7.47;;;;;;;;;;6042167;29;20049;-89
2023/12/23 03:03:46;;;;;;;5.22;5.03;;;;;;;;;;6043159;29;20056;-90
2023/12/23 03:06:48;;;;;;;5.30;5.10;;;;;;;;;;6044465;29;20114;-90
2023/12/23 03:09:50;;;;;;;5.47;5.28;;;;;;;;;;6047285;29;20041;-90
2023/12/23 03:12:53;;;;;;;26.08;6.38;;;;;;;;;;6060372;29;20053;-90
2023/12/23 03:15:56;;;;;;;6.25;5.80;;;;;;;;;;6028918;29;20117;-89
2023/12/23 03:18:58;;;;;;;5.22;5.03;;;;;;;;;;6040987;29;20683;-89
2023/12/23 03:22:00;;;;;;;5.22;5.03;;;;;;;;;;6044856;29;20049;-89
2023/12/23 03:25:02;;;;;;;6.22;5.65;;;;;;;;;;6049744;29;20523;-89
2023/12/23 03:28:04;;;;;;;6.60;6.35;;;;;;;;;;6044051;29;20045;-89
2023/12/23 03:31:06;;;;;;;5.55;5.35;;;;;;;;;;6037526;29;20140;-89
2023/12/23 03:34:07;;;;;;;5.85;5.65;;;;;;;;;;6045925;29;20124;-89
2023/12/23 03:37:09;;;;;;;7.18;6.68;;;;;;;;;;6044536;29;20197;-89
2023/12/23 03:40:11;;;;;;;4.95;4.82;;;;;;;;;;6038151;29;20432;-90
2023/12/23 03:43:13;;;;;;;6.60;6.03;;;;;;;;;;6061283;29;20130;-89
2023/12/23 03:46:17;;;;;;;6.70;6.18;;;;;;;;;;6047157;29;20045;-89
2023/12/23 03:49:19;;;;;;;4.90;4.80;;;;;;;;;;6040099;29;20056;-89
2023/12/23 03:52:22;;;;;;;4.60;4.45;;;;;;;;;;6043200;29;20068;-88
2023/12/23 03:55:32;;;;;;;5.75;5.28;;;;;;;;;;6060963;29;20056;-88
2023/12/23 03:58:34;;;;;;;4.95;4.80;;;;;;;;;;6044320;29;20053;-87
2023/12/23 04:01:36;;;;;;;4.88;4.68;;;;;;;;;;6041356;29;20125;-87
2023/12/23 04:04:39;;;;;;;5.65;5.43;;;;;;;;;;6044617;29;20048;-87
2023/12/23 04:07:42;;;;;;;4.82;4.68;;;;;;;;;;6050688;29;20045;-87
2023/12/23 04:10:44;;;;;;;5.40;5.20;;;;;;;;;;6049992;29;20049;-86
2023/12/23 04:13:45;;;;;;;5.10;4.90;;;;;;;;;;6040764;29;20044;-87
2023/12/23 04:16:48;;;;;;;7.18;4.85;;;;;;;;;;6041206;29;20165;-95
2023/12/23 04:19:51;;;;;;;5.40;5.10;;;;;;;;;;6045409;29;20554;-93
2023/12/23 04:22:53;;;;;;;5.25;5.05;;;;;;;;;;6059263;29;20535;-92
2023/12/23 04:25:55;;;;;;;6.32;6.03;;;;;;;;;;6042931;29;20064;-92
2023/12/23 04:29:16;;;;;;;4.90;4.80;;;;;;;;;;6340098;27;1469636;-89
2023/12/23 04:32:19;;;;;;;6.38;6.07;;;;;;;;;;6324968;28;20058;-90
2023/12/23 04:35:21;;;;;;;5.00;4.80;;;;;;;;;;6342188;28;20126;-89
2023/12/23 04:38:24;;;;;;;5.30;5.10;;;;;;;;;;6309751;28;20519;-89
2023/12/23 04:41:26;;;;;;;5.55;5.35;;;;;;;;;;6330040;28;20052;-90
2023/12/23 04:44:30;;;;;;;6.18;5.88;;;;;;;;;;6332338;27;20050;-90
2023/12/23 04:47:33;;;;;;;4.20;4.10;;;;;;;;;;6331265;28;20059;-91
2023/12/23 04:50:35;;;;;;;5.07;4.88;;;;;;;;;;6346487;27;20058;-90
2023/12/23 04:53:38;;;;;;;5.22;5.10;;;;;;;;;;6311965;28;20044;-92
2023/12/23 04:56:41;;;;;;;5.32;5.13;;;;;;;;;;6329860;28;20416;-96
2023/12/23 04:59:43;;;;;;;6.90;5.22;;;;;;;;;;6304450;28;20043;-92
2023/12/23 05:02:46;;;;;;;4.38;4.28;;;;;;;;;;6327454;28;20039;-92
2023/12/23 05:05:48;;;;;;;5.22;5.03;;;;;;;;;;6342148;28;20037;-91
2023/12/23 05:08:51;;;;;;;6.15;5.95;;;;;;;;;;6308662;27;20091;-91
2023/12/23 05:11:52;;;;;;;5.93;5.63;;;;;;;;;;6314766;28;20071;-92
2023/12/23 05:14:54;;;;;;;5.43;5.22;;;;;;;;;;6334527;27;20047;-92
2023/12/23 05:17:56;;;;;;;5.40;5.20;;;;;;;;;;6308644;28;20051;-88
2023/12/23 05:20:58;;;;;;;5.13;4.93;;;;;;;;;;6338589;27;20040;-87
2023/12/23 05:24:00;;;;;;;4.85;4.75;;;;;;;;;;6341211;27;20128;-87
2023/12/23 05:27:02;;;;;;;5.70;5.40;;;;;;;;;;6316359;28;20044;-89
2023/12/23 05:30:04;;;;;;;4.90;4.70;;;;;;;;;;6317830;28;20040;-89
2023/12/23 05:33:06;;;;;;;5.38;5.18;;;;;;;;;;6338598;28;20051;-88
2023/12/23 05:36:08;;;;;;;5.82;5.63;;;;;;;;;;6342296;28;20378;-89
2023/12/23 05:39:10;;;;;;;4.72;4.60;;;;;;;;;;6315257;28;20509;-89
2023/12/23 05:42:12;;;;;;;5.22;5.05;;;;;;;;;;6331375;28;20035;-89
2023/12/23 05:45:14;;;;;;;6.38;6.18;;;;;;;;;;6318696;28;20295;-88
2023/12/23 05:48:16;;;;;;;5.28;5.07;;;;;;;;;;6324364;28;20044;-88
2023/12/23 05:51:18;;;;;;;4.85;4.75;;;;;;;;;;6326526;28;20036;-90
2023/12/23 05:54:20;;;;;;;5.63;5.43;;;;;;;;;;6331648;28;20062;-89
2023/12/23 05:57:22;;;;;;;5.97;5.57;;;;;;;;;;6326278;28;20040;-89
2023/12/23 06:00:24;;;;;;;5.28;5.07;;;;;;;;;;6307957;28;20521;-89
2023/12/23 06:03:26;;;;;;;5.05;4.85;;;;;;;;;;6295354;28;20048;-90
2023/12/23 06:06:29;;;;;;;5.10;5.00;;;;;;;;;;6319389;28;20051;-90
2023/12/23 06:09:31;;;;;;;4.93;4.80;;;;;;;;;;6329517;28;20047;-89
2023/12/23 06:12:33;;;;;;;5.25;5.05;;;;;;;;;;6327386;28;20039;-89
2023/12/23 06:15:35;;;;;;;5.20;5.10;;;;;;;;;;6325111;28;20092;-90
2023/12/23 06:18:37;;;;;;;5.22;5.03;;;;;;;;;;6329452;28;20047;-90
2023/12/23 06:21:45;;;;;;;5.68;5.47;;;;;;;;;;6326619;28;20536;-91
2023/12/23 06:24:47;;;;;;;4.82;4.72;;;;;;;;;;6307029;28;20039;-89
2023/12/23 06:27:49;;;;;;;5.57;5.38;;;;;;;;;;6310442;28;20039;-90
2023/12/23 06:30:52;;;;;;;5.90;5.70;;;;;;;;;;6323620;28;20048;-89
2023/12/23 06:33:54;;;;;;;5.40;5.20;;;;;;;;;;6322838;28;20039;-88
2023/12/23 06:36:56;;;;;;;5.25;5.10;;;;;;;;;;6320374;28;20165;-89
2023/12/23 06:39:59;;;;;;;5.30;5.15;;;;;;;;;;6313398;28;20547;-90
2023/12/23 06:43:01;;;;;;;5.43;5.22;;;;;;;;;;6314430;28;20044;-93
2023/12/23 06:46:23;;;;;;;5.70;5.50;;;;;;;;;;6313754;28;20435;-92
2023/12/23 06:49:27;;;;;;;5.53;5.32;;;;;;;;;;6306788;28;20138;-92
2023/12/23 06:52:29;;;;;;;4.85;4.75;;;;;;;;;;6307532;28;20481;-91
2023/12/23 06:55:31;;;;;;;5.22;5.07;;;;;;;;;;6296173;28;20059;-90
2023/12/23 06:58:34;;;;;;;5.22;5.05;;;;;;;;;;6315520;28;20043;-91
2023/12/23 07:01:37;;;;;;;6.03;5.82;;;;;;;;;;6314561;28;20047;-90
2023/12/23 07:04:39;;;;;;;5.93;5.72;;;;;;;;;;6304293;28;20418;-90
2023/12/23 07:07:41;;;;;;;5.50;5.30;;;;;;;;;;6322650;28;20050;-93
2023/12/23 07:10:43;;;;;;;5.00;4.90;;;;;;;;;;6306524;28;20063;-90
2023/12/23 07:13:45;;;;;;;4.85;4.75;;;;;;;;;;6293769;28;20427;-90
2023/12/23 07:16:47;;;;;;;5.68;5.47;;;;;;;;;;6325722;28;20042;-90
2023/12/23 07:19:49;;;;;;;5.28;5.07;;;;;;;;;;6314552;28;20036;-93
2023/12/23 07:22:52;;;;;;;5.20;5.05;;;;;;;;;;6323430;28;20047;-90
2023/12/23 07:25:54;;;;;;;5.78;5.57;;;;;;;;;;6322340;28;20401;-89
2023/12/23 07:28:56;;;;;;;6.20;6.00;;;;;;;;;;6318226;28;20043;-90
2023/12/23 07:31:58;;;;;;;5.78;5.57;;;;;;;;;;6302415;28;20032;-90
2023/12/23 07:34:59;;;;;;;4.97;4.88;;;;;;;;;;6300824;28;20055;-88
2023/12/23 07:38:02;;;;;;;5.68;5.47;;;;;;;;;;6319729;28;20032;-89
2023/12/23 07:41:05;;;;;;;5.03;4.88;;;;;;;;;;6309227;28;20606;-91
2023/12/23 07:44:08;;;;;;;5.25;5.05;;;;;;;;;;6300574;28;20042;-91
2023/12/23 07:47:10;;;;;;;5.57;5.38;;;;;;;;;;6306588;28;20051;-89
2023/12/23 07:50:12;;;;;;;5.45;5.25;;;;;;;;;;6321274;28;20509;-90
2023/12/23 07:53:14;;;;;;;5.13;4.93;;;;;;;;;;6294011;28;20046;-90
2023/12/23 07:56:16;;;;;;;5.85;5.65;;;;;;;;;;6323666;28;20044;-89
2023/12/23 07:59:18;;;;;;;5.25;5.05;;;;;;;;;;6311884;28;20114;-89
2023/12/23 08:02:20;;;;;;;5.25;5.05;;;;;;;;;;6300999;28;20489;-89
2023/12/23 08:05:25;;;;;;;6.13;5.93;;;;;;;;;;6312898;28;20040;-89
2023/12/23 08:08:27;;;;;;;5.45;5.25;;;;;;;;;;6304947;28;20418;-89
2023/12/23 08:11:29;;;;;;;4.85;4.75;;;;;;;;;;6320695;28;20044;-88
2023/12/23 08:14:31;;;;;;;5.43;5.22;;;;;;;;;;6317652;28;20079;-89
2023/12/23 08:17:32;;;;;;;4.88;4.78;;;;;;;;;;6303431;28;20039;-89
2023/12/23 08:20:34;;;;;;;5.00;4.80;;;;;;;;;;6297771;28;20520;-88
2023/12/23 08:23:36;;;;;;;5.30;5.10;;;;;;;;;;6299329;28;20458;-89
2023/12/23 08:26:38;;;;;;;6.07;5.88;;;;;;;;;;6326519;28;20036;-89
2023/12/23 08:29:40;;;;;;;5.35;5.15;;;;;;;;;;6315138;28;20633;-89
2023/12/23 08:32:42;;;;;;;4.90;4.80;;;;;;;;;;6314153;28;20413;-88
2023/12/23 08:35:44;;;;;;;5.72;5.53;;;;;;;;;;6288834;28;20052;-89
2023/12/23 08:38:45;;;;;;;5.32;5.15;;;;;;;;;;6312936;28;20048;-89
2023/12/23 08:41:47;;;;;;;5.55;5.35;;;;;;;;;;6294267;28;20036;-89
2023/12/23 08:44:49;;;;;;;5.13;5.00;;;;;;;;;;6299543;28;20043;-86
2023/12/23 08:47:51;;;;;;;5.35;5.15;;;;;;;;;;6311079;28;20033;-85
2023/12/23 08:50:54;;;;;;;4.88;4.78;;;;;;;;;;6312109;28;20451;-85
2023/12/23 08:53:55;;;;;;;5.95;5.75;;;;;;;;;;6321990;28;20058;-84
2023/12/23 08:56:58;;;;;;;5.63;5.43;;;;;;;;;;6304461;28;20056;-85
2023/12/23 09:00:00;;;;;;;5.57;5.38;;;;;;;;;;6288187;28;20044;-86
2023/12/23 09:03:03;;;;;;;5.63;5.43;;;;;;;;;;6298171;28;20037;-86
2023/12/23 09:06:06;;;;;;;6.28;6.07;;;;;;;;;;6315191;28;20031;-87
2023/12/23 09:09:08;;;;;;;5.53;5.32;;;;;;;;;;6283444;28;20052;-86
2023/12/23 09:12:10;;;;;;;5.68;5.47;;;;;;;;;;6312121;28;20415;-86
2023/12/23 09:15:12;;;;;;;5.35;5.15;;;;;;;;;;6321694;28;20500;-86
2023/12/23 09:18:14;;;;;;;4.75;4.65;;;;;;;;;;6324443;28;20116;-87
2023/12/23 09:21:16;;;;;;;5.10;4.95;;;;;;;;;;6293454;28;20052;-87
2023/12/23 09:24:17;;;;;;;5.95;5.75;;;;;;;;;;6327998;28;20515;-86
2023/12/23 09:27:19;;;;;;;5.30;5.10;;;;;;;;;;6311719;28;20064;-85
2023/12/23 09:30:21;;;;;;;5.75;5.55;;;;;;;;;;6320632;28;20090;-85
2023/12/23 09:33:23;;;;;;;5.57;5.38;;;;;;;;;;6322537;28;20461;-86
2023/12/23 09:36:25;;;;;;;6.30;6.10;;;;;;;;;;6313412;28;20066;-86
2023/12/23 09:39:28;;;;;;;5.68;5.47;;;;;;;;;;6325031;28;20157;-86
2023/12/23 09:42:30;;;;;;;5.55;5.35;;;;;;;;;;6301390;28;20040;-86
2023/12/23 09:45:32;;;;;;;4.95;4.85;;;;;;;;;;6318008;28;20036;-86
2023/12/23 09:48:34;;;;;;;5.57;5.38;;;;;;;;;;6321159;28;20130;-86
2023/12/23 09:51:37;;;;;;;5.93;5.72;;;;;;;;;;6292193;28;20132;-86
2023/12/23 09:54:44;;;;;;;6.43;5.80;;;;;;;;;;6306028;28;20052;-86
2023/12/23 09:57:45;;;;;;;5.57;5.38;;;;;;;;;;6267162;28;20051;-86
2023/12/23 10:00:48;;;;;;;5.60;5.40;;;;;;;;;;6317658;28;20125;-86
2023/12/23 10:03:50;;;;;;;5.63;5.43;;;;;;;;;;6303931;28;20525;-86
2023/12/23 10:06:53;;;;;;;6.63;6.43;;;;;;;;;;6310011;28;20414;-88
2023/12/23 10:09:54;;;;;;;6.20;6.00;;;;;;;;;;6305014;28;20485;-86
2023/12/23 10:12:56;;;;;;;5.63;5.43;;;;;;;;;;6307944;28;20037;-87
2023/12/23 10:15:58;;;;;;;6.07;5.88;;;;;;;;;;6313775;28;20049;-88
2023/12/23 10:18:59;;;;;;;5.45;5.25;;;;;;;;;;6300729;28;20510;-87
2023/12/23 10:22:02;;;;;;;7.03;6.82;;;;;;;;;;6316642;28;20036;-88
2023/12/23 10:25:06;;;;;;;6.05;5.85;;;;;;;;;;6318682;28;20087;-88
2023/12/23 10:28:09;;;;;;;6.45;6.25;;;;;;;;;;6299715;28;20050;-88
2023/12/23 10:31:11;;;;;;;6.15;5.95;;;;;;;;;;6318186;28;20046;-88
2023/12/23 10:34:15;;;;;;;5.88;5.68;;;;;;;;;;6311236;28;20042;-88
2023/12/23 10:37:17;;;;;;;5.80;5.60;;;;;;;;;;6312014;28;20057;-88
2023/12/23 10:40:26;;;;;;;5.00;4.90;;;;;;;;;;6316604;28;20108;-89
2023/12/23 10:43:30;;;;;;;6.25;6.05;;;;;;;;;;6313168;28;20048;-88
2023/12/23 10:46:33;;;;;;;5.18;5.03;;;;;;;;;;6314085;28;20331;-89
2023/12/23 10:49:36;;;;;;;5.35;5.15;;;;;;;;;;6324713;28;20122;-87
2023/12/23 10:52:38;;;;;;;6.30;6.10;;;;;;;;;;6317747;28;20176;-88
2023/12/23 10:55:40;;;;;;;5.82;5.63;;;;;;;;;;6316267;28;20120;-88
2023/12/23 10:58:42;;;;;;;5.57;5.38;;;;;;;;;;6328866;28;20039;-87
2023/12/23 11:01:45;;;;;;;6.20;6.00;;;;;;;;;;6327320;28;20459;-87
2023/12/23 11:04:48;;;;;;;6.47;6.28;;;;;;;;;;6312342;28;20044;-87
2023/12/23 11:07:51;;;;;;;5.20;5.03;;;;;;;;;;6323930;28;20517;-87
2023/12/23 11:11:04;;;;;;;5.50;5.30;;;;;;;;;;6321129;28;20051;-87
2023/12/23 11:14:07;;;;;;;5.38;5.18;;;;;;;;;;6319370;28;20044;-87
2023/12/23 11:17:28;;;;;;;6.55;6.35;;;;;;;;;;6316329;28;20047;-86
2023/12/23 11:20:35;;;;;;;5.72;5.53;;;;;;;;;;6310373;28;20071;-86
2023/12/23 11:23:37;;;;;;;5.75;5.55;;;;;;;;;;6308107;28;20072;-86
2023/12/23 11:26:40;;;;;;;6.55;6.07;;;;;;;;;;6301108;28;20615;-87
2023/12/23 11:29:42;;;;;;;4.90;4.80;;;;;;;;;;6302710;28;20047;-86
2023/12/23 11:32:44;;;;;;;6.05;5.85;;;;;;;;;;6310180;28;20494;-88
2023/12/23 11:35:58;;;;;;;5.82;5.63;;;;;;;;;;6314508;28;20051;-88
2023/12/23 11:39:05;;;;;;;5.45;5.25;;;;;;;;;;6302948;28;20044;-87
2023/12/23 11:42:07;;;;;;;6.32;6.13;;;;;;;;;;6313283;28;20496;-86
2023/12/23 11:45:12;;;;;;;5.63;5.43;;;;;;;;;;6298829;28;20036;-85
2023/12/23 11:48:14;;;;;;;5.90;5.70;;;;;;;;;;6294536;28;20044;-85
2023/12/23 11:51:17;;;;;;;5.18;5.07;;;;;;;;;;6319514;28;20526;-87
2023/12/23 11:54:19;;;;;;;4.70;4.60;;;;;;;;;;6290746;28;20162;-86
2023/12/23 11:57:21;;;;;;;6.18;5.97;;;;;;;;;;6308941;28;20496;-86
2023/12/23 12:00:23;;;;;;;4.82;4.72;;;;;;;;;;6308261;28;20406;-86
2023/12/23 12:03:24;;;;;;;5.38;5.18;;;;;;;;;;6311128;28;20047;-86
2023/12/23 12:06:26;;;;;;;6.85;6.65;;;;;;;;;;6313295;28;20044;-86
2023/12/23 12:09:29;;;;;;;4.82;4.72;;;;;;;;;;6320633;28;20530;-86
2023/12/23 12:12:31;;;;;;;4.93;4.82;;;;;;;;;;6323687;28;20039;-86
2023/12/23 12:15:33;;;;;;;4.75;4.65;;;;;;;;;;6314643;28;20055;-86
2023/12/23 12:18:35;;;;;;;4.78;4.68;;;;;;;;;;6313490;28;20040;-86
2023/12/23 12:21:37;;;;;;;5.22;5.03;;;;;;;;;;6298130;28;20032;-85
2023/12/23 12:24:41;;;;;;;4.60;4.50;;;;;;;;;;6322980;28;20044;-85
2023/12/23 12:27:43;;;;;;;5.25;5.05;;;;;;;;;;6309353;28;20047;-85
2023/12/23 12:30:44;;;;;;;5.45;5.25;;;;;;;;;;6315131;28;20173;-85
2023/12/23 12:33:47;;;;;;;5.47;5.28;;;;;;;;;;6303261;28;20036;-85
2023/12/23 12:36:50;;;;;;;4.68;4.53;;;;;;;;;;6309254;28;20127;-85
2023/12/23 12:39:52;;;;;;;5.30;5.10;;;;;;;;;;6306406;28;20044;-86
2023/12/23 12:42:54;;;;;;;5.15;4.95;;;;;;;;;;6325046;28;20033;-87
2023/12/23 12:45:56;;;;;;;5.57;5.38;;;;;;;;;;6293095;28;20040;-87
2023/12/23 12:49:00;;;;;;;4.90;4.80;;;;;;;;;;6318821;28;20044;-87
2023/12/23 12:52:02;;;;;;;5.00;4.88;;;;;;;;;;6321864;28;20432;-87
2023/12/23 12:55:05;;;;;;;4.97;4.88;;;;;;;;;;6299416;28;20040;-87
2023/12/23 12:58:07;;;;;;;5.82;5.63;;;;;;;;;;6312038;28;20045;-87
2023/12/23 13:01:09;;;;;;;5.25;5.05;;;;;;;;;;6320591;28;20039;-86
2023/12/23 13:04:10;;;;;;;5.55;5.35;;;;;;;;;;6322086;28;20067;-86
2023/12/23 13:07:12;;;;;;;5.90;5.70;;;;;;;;;;6318677;28;20111;-85
2023/12/23 13:10:15;;;;;;;4.78;4.68;;;;;;;;;;6315262;28;20639;-87
2023/12/23 13:13:17;;;;;;;5.00;4.80;;;;;;;;;;6293011;28;20056;-86
2023/12/23 13:16:19;;;;;;;5.03;4.82;;;;;;;;;;6302790;28;20079;-85
2023/12/23 13:19:20;;;;;;;5.70;5.50;;;;;;;;;;6315946;28;20043;-85
2023/12/23 13:22:22;;;;;;;4.97;4.85;;;;;;;;;;6314031;28;20051;-85
2023/12/23 13:25:25;;;;;;;5.20;5.00;;;;;;;;;;6324408;28;20042;-86
2023/12/23 13:28:27;;;;;;;5.32;5.13;;;;;;;;;;6327595;28;20474;-85
2023/12/23 13:31:29;;;;;;;5.25;5.05;;;;;;;;;;6321133;28;20078;-85
2023/12/23 13:34:31;;;;;;;5.35;5.15;;;;;;;;;;6322683;28;20044;-86
2023/12/23 13:37:33;;;;;;;4.80;4.68;;;;;;;;;;6304339;28;20059;-86
2023/12/23 13:40:35;;;;;;;5.30;5.13;;;;;;;;;;6323392;28;20088;-86
2023/12/23 13:43:37;;;;;;;4.70;4.60;;;;;;;;;;6308410;28;20047;-86
2023/12/23 13:46:39;;;;;;;7.63;7.43;;;;;;;;;;6301792;28;20454;-86
2023/12/23 13:49:41;;;;;;;4.35;4.25;;;;;;;;;;6307005;28;20417;-85
2023/12/23 13:52:42;;;;;;;6.00;5.80;;;;;;;;;;6323275;28;20173;-87
2023/12/23 13:55:46;;;;;;;5.10;5.00;;;;;;;;;;6323951;28;20126;-86
2023/12/23 13:58:48;;;;;;;5.50;5.30;;;;;;;;;;6296503;28;20527;-86
2023/12/23 14:01:49;;;;;;;4.90;4.80;;;;;;;;;;6314134;28;20036;-87
2023/12/23 14:04:51;;;;;;;4.70;4.60;;;;;;;;;;6303166;28;20390;-87
2023/12/23 14:07:53;;;;;;;4.90;4.80;;;;;;;;;;6318801;28;20122;-86
2023/12/23 14:10:55;;;;;;;5.05;4.95;;;;;;;;;;6313388;28;20059;-86
2023/12/23 14:13:57;;;;;;;4.90;4.80;;;;;;;;;;6300353;28;20045;-86
2023/12/23 14:16:59;;;;;;;5.70;5.50;;;;;;;;;;6289003;28;20051;-86
2023/12/23 14:20:01;;;;;;;5.72;5.53;;;;;;;;;;6297575;28;20040;-86
2023/12/23 14:23:06;;;;;;;5.63;5.43;;;;;;;;;;6302468;28;20072;-86
2023/12/23 14:26:08;;;;;;;5.82;5.63;;;;;;;;;;6314451;28;20040;-87
2023/12/23 14:29:10;;;;;;;5.15;5.00;;;;;;;;;;6323947;28;20126;-87
2023/12/23 14:32:12;;;;;;;6.32;6.13;;;;;;;;;;6278593;28;20096;-87
2023/12/23 14:35:14;;;;;;;5.00;4.85;;;;;;;;;;6313701;28;20867;-87
2023/12/23 14:38:16;;;;;;;5.30;5.10;;;;;;;;;;6316046;28;20028;-87
2023/12/23 14:41:18;;;;;;;6.82;6.63;;;;;;;;;;6316699;28;20394;-87
2023/12/23 14:44:20;;;;;;;5.25;5.05;;;;;;;;;;6306719;28;20056;-87
2023/12/23 14:47:21;;;;;;;6.28;6.07;;;;;;;;;;6294649;28;20039;-88
2023/12/23 14:50:23;;;;;;;4.93;4.82;;;;;;;;;;6301731;28;20122;-88
2023/12/23 14:53:27;;;;;;;5.15;4.97;;;;;;;;;;6318133;28;20047;-88
2023/12/23 14:56:29;;;;;;;5.43;5.22;;;;;;;;;;6316897;28;20127;-88
2023/12/23 14:59:31;;;;;;;5.15;5.00;;;;;;;;;;6324502;28;20349;-88
2023/12/23 15:02:34;;;;;;;4.57;4.47;;;;;;;;;;6293074;28;20386;-87
2023/12/23 15:05:36;;;;;;;4.78;4.68;;;;;;;;;;6317168;28;20036;-87
2023/12/23 15:08:38;;;;;;;5.75;5.45;;;;;;;;;;6321323;28;20097;-87
2023/12/23 15:11:39;;;;;;;4.90;4.80;;;;;;;;;;6315951;28;20070;-87
2023/12/23 15:14:41;;;;;;;5.88;5.55;;;;;;;;;;6308383;28;20028;-87
2023/12/23 15:17:43;;;;;;;4.97;4.88;;;;;;;;;;6313363;28;20045;-87
2023/12/23 15:20:45;;;;;;;5.63;5.43;;;;;;;;;;6321709;28;20040;-86
2023/12/23 15:23:47;;;;;;;6.00;5.80;;;;;;;;;;6311895;28;20075;-86
2023/12/23 15:26:48;;;;;;;5.10;4.93;;;;;;;;;;6317235;28;20138;-86
2023/12/23 15:29:50;;;;;;;4.28;4.18;;;;;;;;;;6319455;28;20071;-86
2023/12/23 15:32:53;;;;;;;5.50;5.30;;;;;;;;;;6321997;28;20048;-86
2023/12/23 15:35:56;;;;;;;5.50;5.30;;;;;;;;;;6326168;28;20070;-86
2023/12/23 15:38:58;;;;;;;5.30;5.10;;;;;;;;;;6316564;28;20079;-86
2023/12/23 15:41:59;;;;;;;4.97;4.85;;;;;;;;;;6296060;28;20429;-86
2023/12/23 15:45:01;;;;;;;5.78;5.15;;;;;;;;;;6315113;28;20093;-86
2023/12/23 15:48:04;;;;;;;5.20;5.00;;;;;;;;;;6322414;28;20043;-86
2023/12/23 15:51:06;;;;;;;5.72;5.53;;;;;;;;;;6315967;28;20504;-86
2023/12/23 15:54:14;;;;;;;5.28;5.07;;;;;;;;;;6316679;28;20176;-86
2023/12/23 15:57:16;;;;;;;5.40;5.20;;;;;;;;;;6319623;28;20123;-86
2023/12/23 16:00:18;;;;;;;6.53;6.28;;;;;;;;;;6290018;28;20047;-86
2023/12/23 16:03:20;;;;;;;6.18;5.97;;;;;;;;;;6307776;28;20386;-86
2023/12/23 16:06:23;;;;;;;4.70;4.60;;;;;;;;;;6320801;28;20071;-86
2023/12/23 16:09:25;;;;;;;5.65;5.45;;;;;;;;;;6293158;28;20052;-86
2023/12/23 16:12:27;;;;;;;5.32;5.13;;;;;;;;;;6299052;28;20048;-86
2023/12/23 16:15:28;;;;;;;5.43;5.22;;;;;;;;;;6320790;28;20141;-86
2023/12/23 16:22:03;;;;;;;5.82;5.63;;;;;;;;;;6306255;28;20044;-86
2023/12/23 16:25:05;;;;;;;5.97;5.78;;;;;;;;;;6296900;28;20123;-86
2023/12/23 16:28:08;;;;;;;5.60;5.40;;;;;;;;;;6298056;28;20050;-87
2023/12/23 16:31:17;;;;;;;7.60;7.30;;;;;;;;;;6284677;28;20040;-87
2023/12/23 16:34:18;;;;;;;4.95;4.85;;;;;;;;;;6311553;28;20117;-88
2023/12/23 16:37:21;;;;;;;5.95;5.75;;;;;;;;;;6291859;28;20181;-88
2023/12/23 16:40:25;;;;;;;5.35;5.15;;;;;;;;;;6322736;28;20043;-87
2023/12/23 16:43:27;;;;;;;5.53;5.32;;;;;;;;;;6314694;28;20913;-87
2023/12/23 16:46:29;;;;;;;5.68;5.47;;;;;;;;;;6319984;28;20409;-87
2023/12/23 16:49:30;;;;;;;6.35;6.07;;;;;;;;;;6292264;28;20036;-87
2023/12/23 16:52:42;;;;;;;5.13;4.97;;;;;;;;;;6319937;28;20209;-87
2023/12/23 16:55:44;;;;;;;4.93;4.82;;;;;;;;;;6317502;28;20595;-87
2023/12/23 16:58:46;;;;;;;5.00;4.85;;;;;;;;;;6310163;28;20055;-91
2023/12/23 17:01:48;;;;;;;5.57;5.38;;;;;;;;;;6284664;28;20141;-90
2023/12/23 17:04:51;;;;;;;6.30;6.10;;;;;;;;;;6291634;28;20477;-89
2023/12/23 17:07:53;;;;;;;5.82;5.63;;;;;;;;;;6303519;28;20044;-90
2023/12/23 17:10:56;;;;;;;6.88;4.88;;;;;;;;;;6326178;28;20078;-91
2023/12/23 17:13:57;;;;;;;5.65;5.45;;;;;;;;;;6317572;28;20173;-90
2023/12/23 17:16:59;;;;;;;4.72;4.57;;;;;;;;;;6299003;28;20481;-90
2023/12/23 17:20:05;;;;;;;5.20;5.03;;;;;;;;;;6313558;28;20048;-90
2023/12/23 17:23:09;;;;;;;6.05;5.85;;;;;;;;;;6304232;28;20060;-90
2023/12/23 17:26:11;;;;;;;6.20;5.95;;;;;;;;;;6285276;28;20054;-91
2023/12/23 17:29:13;;;;;;;5.75;5.35;;;;;;;;;;6319245;28;20350;-90
2023/12/23 17:32:16;;;;;;;5.43;5.22;;;;;;;;;;6298541;28;20130;-91
2023/12/23 17:35:17;;;;;;;5.38;5.18;;;;;;;;;;6296011;28;20051;-91
2023/12/23 17:38:19;;;;;;;4.97;4.78;;;;;;;;;;6295266;28;20047;-90
2023/12/23 17:41:21;;;;;;;6.43;6.13;;;;;;;;;;6301545;28;20028;-89
2023/12/23 17:44:23;;;;;;;4.97;4.82;;;;;;;;;;6321150;28;20049;-89
2023/12/23 17:47:25;;;;;;;6.88;6.57;;;;;;;;;;6302525;28;20040;-89
2023/12/23 17:50:27;;;;;;;5.00;4.85;;;;;;;;;;6319706;28;20884;-89
2023/12/23 17:53:29;;;;;;;5.45;5.25;;;;;;;;;;6299906;28;20045;-90
2023/12/23 17:56:31;;;;;;;6.05;5.85;;;;;;;;;;6302932;28;20477;-89
2023/12/23 17:59:33;;;;;;;5.07;4.97;;;;;;;;;;6308240;28;20086;-89
2023/12/23 18:02:35;;;;;;;5.97;5.78;;;;;;;;;;6293559;28;20446;-89
2023/12/23 18:05:37;;;;;;;6.55;6.22;;;;;;;;;;6312677;28;20332;-90
2023/12/23 18:08:41;;;;;;;5.90;5.60;;;;;;;;;;6288153;28;20048;-90
2023/12/23 18:11:43;;;;;;;7.28;6.97;;;;;;;;;;6320326;28;20099;-89
2023/12/23 18:14:44;;;;;;;6.47;6.28;;;;;;;;;;6313803;28;20032;-90
2023/12/23 18:17:47;;;;;;;5.38;5.20;;;;;;;;;;6298752;28;20036;-90